createdAt,value
2022-09-27T00:01:10.833Z,100.00
2022-09-27T00:03:39.315Z,100.00
2022-09-27T00:06:09.774Z,100.00
2022-09-27T00:08:38.170Z,100.00
2022-09-27T00:11:07.480Z,100.00
2022-09-27T00:13:35.220Z,100.00
2022-09-27T00:16:06.045Z,100.00
2022-09-27T00:18:35.051Z,100.00
2022-09-27T00:21:07.457Z,100.00
2022-09-27T00:23:36.085Z,100.00
2022-09-27T00:26:03.863Z,100.00
2022-09-27T00:28:31.940Z,100.00
2022-09-27T00:31:00.119Z,100.00
2022-09-27T00:33:29.379Z,100.00
2022-09-27T00:36:03.988Z,100.00
2022-09-27T00:38:31.556Z,100.00
2022-09-27T00:40:59.167Z,100.00
2022-09-27T00:43:27.036Z,100.00
2022-09-27T00:46:02.426Z,100.00
2022-09-27T00:48:37.234Z,100.00
2022-09-27T00:51:08.571Z,100.00
2022-09-27T00:53:40.875Z,100.00
2022-09-27T00:56:13.564Z,100.00
2022-09-27T00:58:51.376Z,100.00
2022-09-27T01:01:19.288Z,100.00
2022-09-27T01:03:53.616Z,100.00
2022-09-27T01:06:22.741Z,100.00
2022-09-27T01:08:50.512Z,100.00
2022-09-27T01:11:36.067Z,100.00
2022-09-27T01:14:25.415Z,100.00
2022-09-27T01:17:02.942Z,100.00
2022-09-27T01:20:03.063Z,100.00
2022-09-27T01:22:38.233Z,100.00
2022-09-27T01:25:22.770Z,100.00
2022-09-27T01:28:10.749Z,100.00
2022-09-27T01:30:46.838Z,100.00
2022-09-27T01:33:37.744Z,100.00
2022-09-27T01:36:18.177Z,100.00
2022-09-27T01:38:56.221Z,100.00
2022-09-27T01:41:33.418Z,100.00
2022-09-27T01:44:24.976Z,100.00
2022-09-27T01:47:02.794Z,100.00
2022-09-27T01:49:50.912Z,100.00
2022-09-27T01:52:23.600Z,100.00
2022-09-27T01:54:55.615Z,100.00
2022-09-27T01:57:37.191Z,100.00
2022-09-27T02:00:09.587Z,100.00
2022-09-27T02:02:49.150Z,100.00
2022-09-27T02:05:33.454Z,100.00
2022-09-27T02:08:15.792Z,100.00
2022-09-27T02:10:46.884Z,100.00
2022-09-27T02:13:22.184Z,100.00
2022-09-27T02:15:59.112Z,100.00
2022-09-27T02:18:51.095Z,100.00
2022-09-27T02:21:20.201Z,100.00
2022-09-27T02:23:52.817Z,100.00
2022-09-27T02:26:25.360Z,100.00
2022-09-27T02:28:58.939Z,100.00
2022-09-27T02:31:32.838Z,100.00
2022-09-27T02:34:06.011Z,100.00
2022-09-27T02:36:34.291Z,100.00
2022-09-27T02:39:02.127Z,100.00
2022-09-27T02:41:32.175Z,100.00
2022-09-27T02:44:04.148Z,100.00
2022-09-27T02:46:59.471Z,100.00
2022-09-27T02:49:45.614Z,100.00
2022-09-27T02:52:44.547Z,100.00
2022-09-27T02:55:19.146Z,100.00
2022-09-27T02:58:10.481Z,100.00
2022-09-27T03:01:03.101Z,100.00
2022-09-27T03:04:09.046Z,100.00
2022-09-27T03:06:39.462Z,100.00
2022-09-27T03:09:15.558Z,100.00
2022-09-27T03:11:43.327Z,100.00
2022-09-27T03:14:10.871Z,100.00
2022-09-27T03:16:45.901Z,100.00
2022-09-27T03:19:36.296Z,100.00
2022-09-27T03:22:23.633Z,100.00
2022-09-27T03:24:51.179Z,100.00
2022-09-27T03:27:18.738Z,100.00
2022-09-27T03:29:46.447Z,100.00
2022-09-27T03:32:14.062Z,100.00
2022-09-27T03:35:00.818Z,100.00
2022-09-27T03:37:29.814Z,100.00
2022-09-27T03:39:57.466Z,100.00
2022-09-27T03:42:25.222Z,100.00
2022-09-27T03:44:53.969Z,100.00
2022-09-27T03:47:22.217Z,100.00
2022-09-27T03:49:49.848Z,100.00
2022-09-27T03:52:18.440Z,100.00
2022-09-27T03:54:47.897Z,100.00
2022-09-27T03:57:15.628Z,100.00
2022-09-27T03:59:43.632Z,100.00
2022-09-27T04:02:34.024Z,100.00
2022-09-27T04:05:36.659Z,100.00
2022-09-27T04:08:08.356Z,100.00
2022-09-27T04:10:37.415Z,100.00
2022-09-27T04:13:05.362Z,100.00
2022-09-27T04:15:40.243Z,100.00
2022-09-27T04:18:39.980Z,100.00
2022-09-27T04:21:30.759Z,100.00
2022-09-27T04:23:58.601Z,100.00
2022-09-27T04:26:28.321Z,100.00
2022-09-27T04:29:03.836Z,100.00
2022-09-27T04:31:33.496Z,100.00
2022-09-27T04:34:46.021Z,100.00
2022-09-27T04:37:14.282Z,100.00
2022-09-27T04:39:46.008Z,100.00
2022-09-27T04:42:15.731Z,100.00
2022-09-27T04:44:43.445Z,100.00
2022-09-27T04:47:11.459Z,100.00
2022-09-27T04:49:39.566Z,100.00
2022-09-27T04:52:07.154Z,100.00
2022-09-27T04:54:36.406Z,100.00
2022-09-27T04:57:14.487Z,100.00
2022-09-27T04:59:45.338Z,100.00
2022-09-27T05:02:14.205Z,100.00
2022-09-27T05:05:11.212Z,100.00
2022-09-27T05:07:42.272Z,100.00
2022-09-27T05:10:15.299Z,100.00
2022-09-27T05:12:43.392Z,100.00
2022-09-27T05:15:17.693Z,100.00
2022-09-27T05:18:17.995Z,100.00
2022-09-27T05:21:18.039Z,100.00
2022-09-27T05:23:48.181Z,100.00
2022-09-27T05:26:16.288Z,100.00
2022-09-27T05:28:44.315Z,100.00
2022-09-27T05:31:14.284Z,100.00
2022-09-27T05:33:43.725Z,100.00
2022-09-27T05:36:35.060Z,100.00
2022-09-27T05:39:02.698Z,100.00
2022-09-27T05:41:32.657Z,100.00
2022-09-27T05:44:01.152Z,100.00
2022-09-27T05:46:30.356Z,100.00
2022-09-27T05:48:58.095Z,100.00
2022-09-27T05:51:25.757Z,100.00
2022-09-27T05:53:53.560Z,100.00
2022-09-27T05:56:27.675Z,100.00
2022-09-27T05:59:18.014Z,100.00
2022-09-27T06:02:11.673Z,100.00
2022-09-27T06:05:02.930Z,100.00
2022-09-27T06:07:50.452Z,100.00
2022-09-27T06:10:24.487Z,100.00
2022-09-27T06:12:52.332Z,100.00
2022-09-27T06:15:34.883Z,100.00
2022-09-27T06:18:09.861Z,100.00
2022-09-27T06:20:38.682Z,100.00
2022-09-27T06:23:08.466Z,100.00
2022-09-27T06:25:37.925Z,100.00
2022-09-27T06:28:15.639Z,100.00
2022-09-27T06:30:47.094Z,100.00
2022-09-27T06:33:36.906Z,100.00
2022-09-27T06:36:06.843Z,100.00
2022-09-27T06:38:36.539Z,100.00
2022-09-27T06:41:17.679Z,100.00
2022-09-27T06:44:03.039Z,100.00
2022-09-27T06:47:08.888Z,100.00
2022-09-27T06:50:07.992Z,100.00
2022-09-27T06:52:37.041Z,100.00
2022-09-27T06:55:05.999Z,100.00
2022-09-27T06:57:52.414Z,100.00
2022-09-27T07:00:27.375Z,100.00
2022-09-27T07:04:13.588Z,100.00
2022-09-27T07:07:02.904Z,100.00
2022-09-27T07:09:38.799Z,100.00
2022-09-27T07:12:06.583Z,100.00
2022-09-27T07:14:35.147Z,100.00
2022-09-27T07:17:03.956Z,100.00
2022-09-27T07:19:38.471Z,100.00
2022-09-27T07:22:09.581Z,100.00
2022-09-27T07:24:37.572Z,100.00
2022-09-27T07:27:06.549Z,100.00
2022-09-27T07:29:34.659Z,100.00
2022-09-27T07:32:02.735Z,100.00
2022-09-27T07:34:30.546Z,100.00
2022-09-27T07:37:00.419Z,100.00
2022-09-27T07:39:30.184Z,100.00
2022-09-27T07:41:57.807Z,100.00
2022-09-27T07:44:25.537Z,100.00
2022-09-27T07:47:19.391Z,100.00
2022-09-27T07:50:09.567Z,100.00
2022-09-27T07:52:51.145Z,100.00
2022-09-27T07:55:52.601Z,100.00
2022-09-27T07:58:23.345Z,100.00
2022-09-27T08:00:54.687Z,100.00
2022-09-27T08:03:22.820Z,100.00
2022-09-27T08:05:50.424Z,100.00
2022-09-27T08:08:18.411Z,100.00
2022-09-27T08:10:49.579Z,100.00
2022-09-27T08:13:19.970Z,100.00
2022-09-27T08:15:49.211Z,100.00
2022-09-27T08:18:17.550Z,100.00
2022-09-27T08:20:57.484Z,100.00
2022-09-27T08:23:44.180Z,100.00
2022-09-27T08:26:25.924Z,100.00
2022-09-27T08:29:12.694Z,100.00
2022-09-27T08:31:44.465Z,100.00
2022-09-27T08:34:12.392Z,100.00
2022-09-27T08:36:40.041Z,100.00
2022-09-27T08:39:07.628Z,100.00
2022-09-27T08:41:51.472Z,100.00
2022-09-27T08:44:27.872Z,100.00
2022-09-27T08:47:18.749Z,100.00
2022-09-27T08:49:53.400Z,100.00
2022-09-27T08:52:24.296Z,100.00
2022-09-27T08:54:52.935Z,100.00
2022-09-27T08:57:24.610Z,100.00
2022-09-27T08:59:55.880Z,100.00
2022-09-27T09:02:26.337Z,100.00
2022-09-27T09:04:58.828Z,100.00
2022-09-27T09:07:47.644Z,100.00
2022-09-27T09:10:52.196Z,100.00
2022-09-27T09:13:37.750Z,100.00
2022-09-27T09:16:18.613Z,100.00
2022-09-27T09:19:04.902Z,100.00
2022-09-27T09:22:07.592Z,100.00
2022-09-27T09:24:48.073Z,100.00
2022-09-27T09:27:24.446Z,100.00
2022-09-27T09:30:19.754Z,100.00
2022-09-27T09:33:06.343Z,100.00
2022-09-27T09:35:40.498Z,100.00
2022-09-27T09:38:14.463Z,100.00
2022-09-27T09:40:47.790Z,100.00
2022-09-27T09:43:20.216Z,100.00
2022-09-27T09:45:56.189Z,100.00
2022-09-27T09:48:33.616Z,100.00
2022-09-27T09:51:09.357Z,100.00
2022-09-27T09:53:42.960Z,100.00
2022-09-27T09:56:19.212Z,100.00
2022-09-27T09:58:52.594Z,100.00
2022-09-27T10:01:29.553Z,100.00
2022-09-27T10:03:57.668Z,100.00
2022-09-27T10:06:27.411Z,100.00
2022-09-27T10:08:56.599Z,100.00
2022-09-27T10:11:43.004Z,100.00
2022-09-27T10:14:16.686Z,100.00
2022-09-27T10:16:50.017Z,100.00
2022-09-27T10:19:22.888Z,100.00
2022-09-27T10:21:52.593Z,100.00
2022-09-27T10:24:20.909Z,100.00
2022-09-27T10:27:05.763Z,100.00
2022-09-27T10:29:38.879Z,100.00
2022-09-27T10:32:27.162Z,100.00
2022-09-27T10:35:36.708Z,100.00
2022-09-27T10:38:27.184Z,100.00
2022-09-27T10:41:18.484Z,100.00
2022-09-27T10:43:46.384Z,100.00
2022-09-27T10:46:33.837Z,100.00
2022-09-27T10:49:23.038Z,100.00
2022-09-27T10:51:55.521Z,100.00
2022-09-27T10:54:27.598Z,100.00
2022-09-27T10:56:58.980Z,100.00
2022-09-27T10:59:30.567Z,100.00
2022-09-27T11:01:59.564Z,100.00
2022-09-27T11:04:38.732Z,100.00
2022-09-27T11:07:16.359Z,100.00
2022-09-27T11:09:54.536Z,100.00
2022-09-27T11:12:25.410Z,100.00
2022-09-27T11:14:57.436Z,100.00
2022-09-27T11:17:35.858Z,100.00
2022-09-27T11:20:16.018Z,100.00
2022-09-27T11:23:15.624Z,100.00
2022-09-27T11:25:56.677Z,100.00
2022-09-27T11:28:37.361Z,100.00
2022-09-27T11:31:21.589Z,100.00
2022-09-27T11:34:14.817Z,100.00
2022-09-27T11:37:04.064Z,100.00
2022-09-27T11:39:40.801Z,100.00
2022-09-27T11:42:25.530Z,100.00
2022-09-27T11:48:04.273Z,100.00
2022-09-27T11:51:02.919Z,100.00
2022-09-27T11:53:45.881Z,100.00
2022-09-27T11:56:28.539Z,100.00
2022-09-27T11:59:10.456Z,100.00
2022-09-27T12:01:47.685Z,100.00
2022-09-27T12:04:42.499Z,100.00
2022-09-27T12:07:20.581Z,100.00
2022-09-27T12:09:54.199Z,100.00
2022-09-27T12:12:25.399Z,100.00
2022-09-27T12:14:57.487Z,100.00
2022-09-27T12:17:28.924Z,100.00
2022-09-27T12:20:01.056Z,100.00
2022-09-27T12:22:59.251Z,99.81
2022-09-27T12:25:42.640Z,99.23
2022-09-27T12:28:28.162Z,99.31
2022-09-27T12:31:27.547Z,99.62
2022-09-27T12:34:01.744Z,97.87
2022-09-27T12:36:38.422Z,97.10
2022-09-27T12:39:13.299Z,96.70
2022-09-27T12:41:52.615Z,97.07
2022-09-27T12:44:34.499Z,96.68
2022-09-27T12:47:09.047Z,95.84
2022-09-27T12:49:48.106Z,94.73
2022-09-27T12:52:23.138Z,94.36
2022-09-27T12:55:09.131Z,94.63
2022-09-27T12:57:48.154Z,93.66
2022-09-27T13:00:21.894Z,93.19
2022-09-27T13:03:16.433Z,93.87
2022-09-27T13:06:24.215Z,94.28
2022-09-27T13:09:33.767Z,93.85
2022-09-27T13:12:09.788Z,93.13
2022-09-27T13:14:45.368Z,93.46
2022-09-27T13:17:51.142Z,92.98
2022-09-27T13:20:48.158Z,93.57
2022-09-27T13:24:02.166Z,94.43
2022-09-27T13:26:51.538Z,94.25
2022-09-27T13:29:34.129Z,93.92
2022-09-27T13:32:18.716Z,93.40
2022-09-27T13:35:21.630Z,93.30
2022-09-27T13:37:59.310Z,93.40
2022-09-27T13:40:35.930Z,93.61
2022-09-27T13:44:05.220Z,93.13
2022-09-27T13:46:53.294Z,93.73
2022-09-27T13:49:30.125Z,94.18
2022-09-27T13:52:20.562Z,94.01
2022-09-27T13:54:54.030Z,93.35
2022-09-27T13:57:45.148Z,93.42
2022-09-27T14:00:21.285Z,94.28
2022-09-27T14:03:02.529Z,94.50
2022-09-27T14:05:39.088Z,93.86
2022-09-27T14:08:08.362Z,93.02
2022-09-27T14:10:37.226Z,91.87
2022-09-27T14:13:07.719Z,91.65
2022-09-27T14:15:46.497Z,92.10
2022-09-27T14:18:14.773Z,92.08
2022-09-27T14:20:46.410Z,91.50
2022-09-27T14:23:37.345Z,90.70
2022-09-27T14:26:05.734Z,90.02
2022-09-27T14:28:42.187Z,89.71
2022-09-27T14:31:39.190Z,90.02
2022-09-27T14:34:08.684Z,90.65
2022-09-27T14:36:57.004Z,90.88
2022-09-27T14:39:31.163Z,90.45
2022-09-27T14:42:01.091Z,89.81
2022-09-27T14:44:29.193Z,89.99
2022-09-27T14:47:18.815Z,90.07
2022-09-27T14:49:50.841Z,90.32
2022-09-27T14:52:21.660Z,90.65
2022-09-27T14:54:58.476Z,91.11
2022-09-27T14:57:28.187Z,92.01
2022-09-27T14:59:57.580Z,91.71
2022-09-27T15:02:27.085Z,91.45
2022-09-27T15:04:55.669Z,91.50
2022-09-27T15:07:24.854Z,91.29
2022-09-27T15:09:52.703Z,90.85
2022-09-27T15:12:26.376Z,90.93
2022-09-27T15:14:58.094Z,91.19
2022-09-27T15:17:26.705Z,91.62
2022-09-27T15:19:59.096Z,92.28
2022-09-27T15:22:44.825Z,92.58
2022-09-27T15:25:34.398Z,92.37
2022-09-27T15:28:05.416Z,92.34
2022-09-27T15:30:38.421Z,92.20
2022-09-27T15:33:08.500Z,92.34
2022-09-27T15:35:37.364Z,92.80
2022-09-27T15:38:26.425Z,92.71
2022-09-27T15:41:11.007Z,92.95
2022-09-27T15:43:42.235Z,93.12
2022-09-27T15:46:28.702Z,93.81
2022-09-27T15:49:20.912Z,94.14
2022-09-27T15:51:49.663Z,94.04
2022-09-27T15:54:20.820Z,94.22
2022-09-27T15:56:54.531Z,94.39
2022-09-27T15:59:25.472Z,94.63
2022-09-27T16:01:57.076Z,94.75
2022-09-27T16:04:26.146Z,95.17
2022-09-27T16:06:54.607Z,95.61
2022-09-27T16:09:23.636Z,95.77
2022-09-27T16:11:52.074Z,95.85
2022-09-27T16:14:19.844Z,95.94
2022-09-27T16:16:50.105Z,95.41
2022-09-27T16:19:17.948Z,95.32
2022-09-27T16:21:48.423Z,95.30
2022-09-27T16:24:17.284Z,94.96
2022-09-27T16:26:46.219Z,95.21
2022-09-27T16:29:15.833Z,95.12
2022-09-27T16:31:44.068Z,94.98
2022-09-27T16:34:12.619Z,95.32
2022-09-27T16:36:40.640Z,95.58
2022-09-27T16:39:12.645Z,95.85
2022-09-27T16:41:42.259Z,95.84
2022-09-27T16:44:13.195Z,95.79
2022-09-27T16:46:41.963Z,95.95
2022-09-27T16:49:30.304Z,95.92
2022-09-27T16:51:59.772Z,95.87
2022-09-27T16:54:29.068Z,96.33
2022-09-27T16:56:57.519Z,95.96
2022-09-27T16:59:26.859Z,95.52
2022-09-27T17:01:57.535Z,95.79
2022-09-27T17:04:25.656Z,95.55
2022-09-27T17:06:53.292Z,95.56
2022-09-27T17:09:21.357Z,95.96
2022-09-27T17:11:49.322Z,95.87
2022-09-27T17:14:18.019Z,95.74
2022-09-27T17:16:48.219Z,95.57
2022-09-27T17:19:16.764Z,95.57
2022-09-27T17:21:44.566Z,95.41
2022-09-27T17:24:12.875Z,95.51
2022-09-27T17:26:40.627Z,95.36
2022-09-27T17:29:09.236Z,95.35
2022-09-27T17:31:39.827Z,95.35
2022-09-27T17:34:12.086Z,95.71
2022-09-27T17:36:42.136Z,95.81
2022-09-27T17:39:13.164Z,95.65
2022-09-27T17:41:41.054Z,95.77
2022-09-27T17:44:11.974Z,95.91
2022-09-27T17:46:39.920Z,95.83
2022-09-27T17:49:27.894Z,95.82
2022-09-27T17:51:55.594Z,95.96
2022-09-27T17:54:26.101Z,95.80
2022-09-27T17:56:53.899Z,95.93
2022-09-27T17:59:21.466Z,95.84
2022-09-27T18:01:49.495Z,95.84
2022-09-27T18:04:19.600Z,95.82
2022-09-27T18:06:48.567Z,95.92
2022-09-27T18:09:17.820Z,95.94
2022-09-27T18:11:45.959Z,96.28
2022-09-27T18:14:13.955Z,96.46
2022-09-27T18:16:42.808Z,96.45
2022-09-27T18:19:13.762Z,96.86
2022-09-27T18:21:42.715Z,97.05
2022-09-27T18:24:11.110Z,96.80
2022-09-27T18:26:40.195Z,96.91
2022-09-27T18:29:11.068Z,97.35
2022-09-27T18:31:39.784Z,97.23
2022-09-27T18:34:07.475Z,97.64
2022-09-27T18:36:37.354Z,97.77
2022-09-27T18:39:09.195Z,98.13
2022-09-27T18:41:36.972Z,98.19
2022-09-27T18:44:06.529Z,98.43
2022-09-27T18:46:37.149Z,98.55
2022-09-27T18:49:06.448Z,98.62
2022-09-27T18:51:37.158Z,98.69
2022-09-27T18:54:09.227Z,99.13
2022-09-27T18:56:39.224Z,99.23
2022-09-27T18:59:08.791Z,99.48
2022-09-27T19:01:39.486Z,99.70
2022-09-27T19:04:08.197Z,100.00
2022-09-27T19:06:37.084Z,100.00
2022-09-27T19:09:08.112Z,100.00
2022-09-27T19:11:35.937Z,100.00
2022-09-27T19:14:04.030Z,100.00
2022-09-27T19:16:32.046Z,100.00
2022-09-27T19:18:59.679Z,100.00
2022-09-27T19:21:29.037Z,100.00
2022-09-27T19:23:57.292Z,100.00
2022-09-27T19:26:27.858Z,100.00
2022-09-27T19:28:55.863Z,100.00
2022-09-27T19:31:25.608Z,100.00
2022-09-27T19:33:59.736Z,100.00
2022-09-27T19:36:28.748Z,100.00
2022-09-27T19:38:58.531Z,100.00
2022-09-27T19:41:27.910Z,100.00
2022-09-27T19:43:56.491Z,100.00
2022-09-27T19:46:25.563Z,100.00
2022-09-27T19:48:53.719Z,100.00
2022-09-27T19:51:23.360Z,100.00
2022-09-27T19:53:51.587Z,100.00
2022-09-27T19:56:20.159Z,100.00
2022-09-27T19:58:49.132Z,100.00
2022-09-27T20:01:19.124Z,100.00
2022-09-27T20:03:48.036Z,100.00
2022-09-27T20:06:17.252Z,100.00
2022-09-27T20:08:45.408Z,100.00
2022-09-27T20:11:15.111Z,100.00
2022-09-27T20:13:43.463Z,100.00
2022-09-27T20:16:15.140Z,100.00
2022-09-27T20:18:44.642Z,100.00
2022-09-27T20:21:12.380Z,100.00
2022-09-27T20:23:40.325Z,100.00
2022-09-27T20:26:09.454Z,100.00
2022-09-27T20:28:41.634Z,100.00
2022-09-27T20:31:11.023Z,100.00
2022-09-27T20:33:43.767Z,100.00
2022-09-27T20:36:13.371Z,100.00
2022-09-27T20:38:41.428Z,100.00
2022-09-27T20:41:10.393Z,100.00
2022-09-27T20:43:38.493Z,100.00
2022-09-27T20:46:08.123Z,100.00
2022-09-27T20:48:36.454Z,100.00
2022-09-27T20:51:06.468Z,100.00
2022-09-27T20:53:35.336Z,100.00
2022-09-27T20:56:03.556Z,100.00
2022-09-27T20:58:32.528Z,100.00
2022-09-27T21:01:06.480Z,100.00
2022-09-27T21:03:34.344Z,100.00
2022-09-27T21:06:02.233Z,100.00
2022-09-27T21:08:33.131Z,100.00
2022-09-27T21:11:06.315Z,100.00
2022-09-27T21:13:33.976Z,100.00
2022-09-27T21:16:02.793Z,100.00
2022-09-27T21:18:30.704Z,100.00
2022-09-27T21:20:59.581Z,100.00
2022-09-27T21:23:29.507Z,100.00
2022-09-27T21:26:06.859Z,100.00
2022-09-27T21:28:35.787Z,100.00
2022-09-27T21:31:05.506Z,100.00
2022-09-27T21:33:34.128Z,100.00
2022-09-27T21:36:02.707Z,100.00
2022-09-27T21:38:30.891Z,100.00
2022-09-27T21:40:59.547Z,100.00
2022-09-27T21:43:30.964Z,100.00
2022-09-27T21:46:06.749Z,100.00
2022-09-27T21:48:35.625Z,100.00
2022-09-27T21:51:05.908Z,100.00
2022-09-27T21:53:34.724Z,100.00
2022-09-27T21:56:03.333Z,100.00
2022-09-27T21:58:35.127Z,100.00
2022-09-27T22:01:08.063Z,100.00
2022-09-27T22:03:36.755Z,100.00
2022-09-27T22:06:05.525Z,100.00
2022-09-27T22:08:33.230Z,100.00
2022-09-27T22:11:00.957Z,100.00
2022-09-27T22:13:28.853Z,100.00
2022-09-27T22:16:02.861Z,100.00
2022-09-27T22:18:30.944Z,100.00
2022-09-27T22:21:03.395Z,100.00
2022-09-27T22:23:31.020Z,100.00
2022-09-27T22:25:58.673Z,100.00
2022-09-27T22:28:27.244Z,100.00
2022-09-27T22:30:54.895Z,100.00
2022-09-27T22:33:23.980Z,100.00
2022-09-27T22:35:51.590Z,100.00
2022-09-27T22:38:19.175Z,100.00
2022-09-27T22:40:54.906Z,100.00
2022-09-27T22:43:22.728Z,100.00
2022-09-27T22:45:50.340Z,100.00
2022-09-27T22:48:18.941Z,100.00
2022-09-27T22:50:47.864Z,100.00
2022-09-27T22:53:15.730Z,100.00
2022-09-27T22:55:43.345Z,100.00
2022-09-27T22:58:10.976Z,100.00
2022-09-27T23:00:38.818Z,100.00
2022-09-27T23:03:06.458Z,100.00
2022-09-27T23:05:34.020Z,100.00
2022-09-27T23:08:03.074Z,100.00
2022-09-27T23:10:30.822Z,100.00
2022-09-27T23:12:58.943Z,100.00
2022-09-27T23:15:26.564Z,100.00
2022-09-27T23:17:54.952Z,100.00
2022-09-27T23:20:23.447Z,100.00
2022-09-27T23:22:51.909Z,100.00
2022-09-27T23:25:21.978Z,100.00
2022-09-27T23:27:50.791Z,100.00
2022-09-27T23:30:20.194Z,100.00
2022-09-27T23:32:53.290Z,100.00
2022-09-27T23:35:21.116Z,100.00
2022-09-27T23:37:48.840Z,100.00
2022-09-27T23:40:16.648Z,100.00
2022-09-27T23:42:45.566Z,100.00
2022-09-27T23:45:14.275Z,100.00
2022-09-27T23:47:42.010Z,100.00
2022-09-27T23:50:10.586Z,100.00
2022-09-27T23:52:38.168Z,100.00
2022-09-27T23:55:06.834Z,100.00
2022-09-27T23:57:34.390Z,100.00
